KSPF/SPF METAR and TAF weather

Enter ICAO airport designator
Station Type Date Time Source
KSPF METAR 2019/05/20 10:55 UTC NOAA

KSPF 201055Z AUTO 10008KT 10SM SCT024 SCT030 OVC042 02/02 A3003 RMK AO2


Station Type Date Time Source
KSPF Decoded METAR 2019/05/20 10:55 UTC NOAA

Spearfish / Clyde Ice, SD, United States (KSPF) 44-29N 103-47W
May 20, 2019 - 06:55 AM EDT / 2019.05.20 1055 UTC
Wind: from the E (100 degrees) at 9 MPH (8 KT):0
Visibility: 10 mile(s):0
Sky conditions: overcast
Temperature: 35 F (2 C)
Windchill: 28 F (-2 C):1
Dew Point: 35 F (2 C)
Relative Humidity: 100%
Pressure (altimeter): 30.03 in. Hg (1016 hPa)
ob: KSPF 201055Z AUTO 10008KT 10SM SCT024 SCT030 OVC042 02/02 A3003 RMK AO2
cycle: 11

Station Type Date Time Source
KSPF TAF UTC NOAA

Error!

Example: see airport list